sensor_id;sensor_type;location;lat;lon;timestamp;pressure;altitude;pressure_sealevel;temperature;humidity
31357;BME280;60001;48.404;11.738;2023-04-29T00:00:00;95979.97;;;11.65;98.18
31357;BME280;60001;48.404;11.738;2023-04-29T00:01:32;95976.28;;;11.61;98.76
31357;BME280;60001;48.404;11.738;2023-04-29T00:03:04;95976.53;;;11.65;98.08
31357;BME280;60001;48.404;11.738;2023-04-29T00:04:37;95982.34;;;11.67;98.23
31357;BME280;60001;48.404;11.738;2023-04-29T00:06:09;95976.00;;;11.68;97.94
31357;BME280;60001;48.404;11.738;2023-04-29T00:07:41;95973.91;;;11.44;99.27
31357;BME280;60001;48.404;11.738;2023-04-29T00:09:13;95971.00;;;11.41;100.00
31357;BME280;60001;48.404;11.738;2023-04-29T00:10:45;95956.19;;;11.40;99.75
31357;BME280;60001;48.404;11.738;2023-04-29T00:12:17;95968.34;;;11.51;99.64
31357;BME280;60001;48.404;11.738;2023-04-29T00:13:49;95971.53;;;11.53;99.25
31357;BME280;60001;48.404;11.738;2023-04-29T00:15:21;95968.88;;;11.53;99.18
31357;BME280;60001;48.404;11.738;2023-04-29T00:16:52;95932.16;;;11.36;98.88
31357;BME280;60001;48.404;11.738;2023-04-29T00:18:24;95964.38;;;11.59;98.57
31357;BME280;60001;48.404;11.738;2023-04-29T00:19:57;95967.81;;;11.44;99.23
31357;BME280;60001;48.404;11.738;2023-04-29T00:21:29;95965.47;;;11.47;99.00
31357;BME280;60001;48.404;11.738;2023-04-29T00:23:02;95965.19;;;11.39;99.59
31357;BME280;60001;48.404;11.738;2023-04-29T00:24:34;95959.63;;;11.35;99.09
31357;BME280;60001;48.404;11.738;2023-04-29T00:26:06;95950.38;;;11.33;99.13
31357;BME280;60001;48.404;11.738;2023-04-29T00:27:38;95958.56;;;11.46;99.43
31357;BME280;60001;48.404;11.738;2023-04-29T00:29:08;95962.53;;;11.49;98.40
31357;BME280;60001;48.404;11.738;2023-04-29T00:30:40;95962.00;;;11.52;98.08
31357;BME280;60001;48.404;11.738;2023-04-29T00:32:12;95957.25;;;11.49;98.49
31357;BME280;60001;48.404;11.738;2023-04-29T00:33:44;95965.44;;;11.52;98.01
31357;BME280;60001;48.404;11.738;2023-04-29T00:35:17;95969.66;;;11.53;97.55
31357;BME280;60001;48.404;11.738;2023-04-29T00:36:49;95957.78;;;11.15;99.82
31357;BME280;60001;48.404;11.738;2023-04-29T00:38:21;95951.44;;;11.27;99.74
31357;BME280;60001;48.404;11.738;2023-04-29T00:39:53;95972.31;;;11.43;99.61
31357;BME280;60001;48.404;11.738;2023-04-29T00:41:25;95967.56;;;11.45;99.08
31357;BME280;60001;48.404;11.738;2023-04-29T00:42:56;95967.28;;;11.52;99.19
31357;BME280;60001;48.404;11.738;2023-04-29T00:44:27;95952.25;;;11.47;98.33
31357;BME280;60001;48.404;11.738;2023-04-29T00:45:59;95973.66;;;11.51;98.78
31357;BME280;60001;48.404;11.738;2023-04-29T00:47:31;95963.59;;;11.43;99.17
31357;BME280;60001;48.404;11.738;2023-04-29T00:49:03;95960.16;;;11.42;99.50
31357;BME280;60001;48.404;11.738;2023-04-29T00:50:36;95957.78;;;11.46;99.27
31357;BME280;60001;48.404;11.738;2023-04-29T00:52:07;95969.94;;;11.52;98.62
31357;BME280;60001;48.404;11.738;2023-04-29T00:53:39;95958.56;;;11.51;98.41
31357;BME280;60001;48.404;11.738;2023-04-29T00:55:13;95965.16;;;11.54;98.34
31357;BME280;60001;48.404;11.738;2023-04-29T00:56:45;95962.53;;;11.54;98.10
31357;BME280;60001;48.404;11.738;2023-04-29T00:58:17;95950.91;;;11.50;97.66
31357;BME280;60001;48.404;11.738;2023-04-29T00:59:49;95955.91;;;11.46;98.28
31357;BME280;60001;48.404;11.738;2023-04-29T01:01:22;95940.09;;;11.41;98.08
31357;BME280;60001;48.404;11.738;2023-04-29T01:02:54;95947.22;;;11.41;98.17
31357;BME280;60001;48.404;11.738;2023-04-29T01:04:26;95956.72;;;11.47;98.60
31357;BME280;60001;48.404;11.738;2023-04-29T01:06:08;95949.31;;;11.44;98.46
31357;BME280;60001;48.404;11.738;2023-04-29T01:07:53;95960.16;;;11.52;98.02
31357;BME280;60001;48.404;11.738;2023-04-29T01:09:52;95963.34;;;11.55;97.65
31357;BME280;60001;48.404;11.738;2023-04-29T01:11:31;95954.06;;;11.52;97.42
31357;BME280;60001;48.404;11.738;2023-04-29T01:13:08;95958.84;;;11.55;97.18
31357;BME280;60001;48.404;11.738;2023-04-29T01:14:50;95961.72;;;11.53;96.96
31357;BME280;60001;48.404;11.738;2023-04-29T01:16:29;95958.06;;;11.49;97.09
31357;BME280;60001;48.404;11.738;2023-04-29T01:18:09;95956.19;;;11.40;97.06
31357;BME280;60001;48.404;11.738;2023-04-29T01:19:47;95955.69;;;11.43;97.36
31357;BME280;60001;48.404;11.738;2023-04-29T01:21:21;95961.47;;;11.45;97.20
31357;BME280;60001;48.404;11.738;2023-04-29T01:22:53;95962.25;;;11.40;97.47
31357;BME280;60001;48.404;11.738;2023-04-29T01:24:25;95960.16;;;11.42;97.21
31357;BME280;60001;48.404;11.738;2023-04-29T01:25:57;95950.38;;;11.22;97.64
31357;BME280;60001;48.404;11.738;2023-04-29T01:27:33;95948.00;;;11.16;98.34
31357;BME280;60001;48.404;11.738;2023-04-29T01:29:21;95955.13;;;11.25;98.71
31357;BME280;60001;48.404;11.738;2023-04-29T01:31:05;95958.31;;;11.22;99.21
31357;BME280;60001;48.404;11.738;2023-04-29T01:32:49;95926.31;;;11.09;99.03
31357;BME280;60001;48.404;11.738;2023-04-29T01:34:31;95956.72;;;11.37;98.61
31357;BME280;60001;48.404;11.738;2023-04-29T01:36:15;95955.66;;;11.33;98.25
31357;BME280;60001;48.404;11.738;2023-04-29T01:37:56;95959.88;;;11.23;99.07
31357;BME280;60001;48.404;11.738;2023-04-29T01:39:40;95958.84;;;11.24;99.63
31357;BME280;60001;48.404;11.738;2023-04-29T01:41:21;95949.06;;;11.15;100.00
31357;BME280;60001;48.404;11.738;2023-04-29T01:43:00;95920.25;;;11.03;100.00
31357;BME280;60001;48.404;11.738;2023-04-29T01:44:32;95956.72;;;11.37;99.70
31357;BME280;60001;48.404;11.738;2023-04-29T01:46:08;95956.19;;;11.45;99.52
31357;BME280;60001;48.404;11.738;2023-04-29T01:47:42;95946.97;;;11.47;98.90
31357;BME280;60001;48.404;11.738;2023-04-29T01:49:19;95959.09;;;11.53;98.49
31357;BME280;60001;48.404;11.738;2023-04-29T01:50:50;95967.31;;;11.57;98.08
31357;BME280;60001;48.404;11.738;2023-04-29T01:52:21;95940.59;;;11.48;98.14
31357;BME280;60001;48.404;11.738;2023-04-29T01:53:56;95948.00;;;11.51;98.04
31357;BME280;60001;48.404;11.738;2023-04-29T01:55:31;95963.06;;;11.46;98.23
31357;BME280;60001;48.404;11.738;2023-04-29T01:57:21;95919.72;;;11.32;97.68
31357;BME280;60001;48.404;11.738;2023-04-29T01:58:54;95960.16;;;11.63;97.59
31357;BME280;60001;48.404;11.738;2023-04-29T02:00:36;95956.19;;;11.65;97.17
31357;BME280;60001;48.404;11.738;2023-04-29T02:02:08;95943.78;;;11.56;97.50
31357;BME280;60001;48.404;11.738;2023-04-29T02:03:39;95956.44;;;11.64;96.86
31357;BME280;60001;48.404;11.738;2023-04-29T02:05:11;95952.78;;;11.55;97.65
31357;BME280;60001;48.404;11.738;2023-04-29T02:06:42;95953.00;;;11.63;97.58
31357;BME280;60001;48.404;11.738;2023-04-29T02:08:13;95953.53;;;11.65;96.94
31357;BME280;60001;48.404;11.738;2023-04-29T02:09:44;95932.41;;;11.55;96.87
31357;BME280;60001;48.404;11.738;2023-04-29T02:11:17;95957.50;;;11.58;97.08
31357;BME280;60001;48.404;11.738;2023-04-29T02:12:49;95943.25;;;11.43;98.01
31357;BME280;60001;48.404;11.738;2023-04-29T02:14:21;95938.75;;;11.39;97.25
31357;BME280;60001;48.404;11.738;2023-04-29T02:15:53;95957.53;;;11.42;98.19
31357;BME280;60001;48.404;11.738;2023-04-29T02:17:25;95955.94;;;11.36;98.55
31357;BME280;60001;48.404;11.738;2023-04-29T02:18:57;95951.69;;;11.10;99.76
31357;BME280;60001;48.404;11.738;2023-04-29T02:20:28;95947.72;;;11.12;100.00
31357;BME280;60001;48.404;11.738;2023-04-29T02:22:00;95930.53;;;11.05;100.00
31357;BME280;60001;48.404;11.738;2023-04-29T02:23:33;95950.06;;;10.98;100.00
31357;BME280;60001;48.404;11.738;2023-04-29T02:25:08;95932.91;;;10.96;100.00
31357;BME280;60001;48.404;11.738;2023-04-29T02:26:41;95942.16;;;10.93;100.00
31357;BME280;60001;48.404;11.738;2023-04-29T02:28:13;95916.78;;;10.87;100.00
31357;BME280;60001;48.404;11.738;2023-04-29T02:29:45;95954.06;;;11.01;100.00
31357;BME280;60001;48.404;11.738;2023-04-29T02:31:17;95943.75;;;11.00;100.00
31357;BME280;60001;48.404;11.738;2023-04-29T02:32:49;95946.91;;;10.86;100.00
31357;BME280;60001;48.404;11.738;2023-04-29T02:34:20;95959.63;;;11.00;100.00
31357;BME280;60001;48.404;11.738;2023-04-29T02:35:53;95951.94;;;11.03;100.00
31357;BME280;60001;48.404;11.738;2023-04-29T02:37:26;95943.50;;;11.01;99.66
31357;BME280;60001;48.404;11.738;2023-04-29T02:38:58;95959.88;;;11.18;99.02
31357;BME280;60001;48.404;11.738;2023-04-29T02:40:30;95950.09;;;11.24;98.57
31357;BME280;60001;48.404;11.738;2023-04-29T02:42:03;95964.13;;;11.24;97.54
31357;BME280;60001;48.404;11.738;2023-04-29T02:43:35;95951.97;;;11.23;96.45
31357;BME280;60001;48.404;11.738;2023-04-29T02:45:07;95951.44;;;11.16;96.55
31357;BME280;60001;48.404;11.738;2023-04-29T02:46:39;95947.72;;;11.17;96.32
31357;BME280;60001;48.404;11.738;2023-04-29T02:48:14;95954.84;;;11.12;96.21
31357;BME280;60001;48.404;11.738;2023-04-29T02:49:46;95942.69;;;11.01;95.74
31357;BME280;60001;48.404;11.738;2023-04-29T02:51:18;95952.72;;;11.04;96.31
31357;BME280;60001;48.404;11.738;2023-04-29T02:52:50;95954.06;;;11.01;97.00
31357;BME280;60001;48.404;11.738;2023-04-29T02:54:22;95948.00;;;11.01;96.79
31357;BME280;60001;48.404;11.738;2023-04-29T02:55:53;95957.50;;;11.02;96.94
31357;BME280;60001;48.404;11.738;2023-04-29T02:57:26;95942.44;;;10.92;96.30
31357;BME280;60001;48.404;11.738;2023-04-29T02:58:59;95962.50;;;11.03;96.64
31357;BME280;60001;48.404;11.738;2023-04-29T03:00:30;95960.94;;;11.07;96.11
31357;BME280;60001;48.404;11.738;2023-04-29T03:02:02;95954.84;;;11.02;96.31
31357;BME280;60001;48.404;11.738;2023-04-29T03:03:34;95959.88;;;11.08;96.40
31357;BME280;60001;48.404;11.738;2023-04-29T03:05:05;95955.38;;;11.09;95.95
31357;BME280;60001;48.404;11.738;2023-04-29T03:06:37;95943.50;;;11.01;95.93
31357;BME280;60001;48.404;11.738;2023-04-29T03:08:11;95958.03;;;11.04;96.05
31357;BME280;60001;48.404;11.738;2023-04-29T03:09:43;95961.47;;;10.99;97.63
31357;BME280;60001;48.404;11.738;2023-04-29T03:11:15;95953.53;;;10.99;97.13
31357;BME280;60001;48.404;11.738;2023-04-29T03:12:48;95955.66;;;11.02;96.78
31357;BME280;60001;48.404;11.738;2023-04-29T03:14:19;95957.75;;;11.10;96.13
31357;BME280;60001;48.404;11.738;2023-04-29T03:15:51;95964.38;;;11.13;96.44
31357;BME280;60001;48.404;11.738;2023-04-29T03:17:22;95954.59;;;11.08;96.13
31357;BME280;60001;48.404;11.738;2023-04-29T03:18:54;95913.34;;;10.82;96.67
31357;BME280;60001;48.404;11.738;2023-04-29T03:20:26;95955.09;;;11.05;97.13
31357;BME280;60001;48.404;11.738;2023-04-29T03:21:58;95959.59;;;11.05;96.99
31357;BME280;60001;48.404;11.738;2023-04-29T03:23:29;95957.22;;;10.98;96.87
31357;BME280;60001;48.404;11.738;2023-04-29T03:25:01;95951.94;;;10.93;97.67
31357;BME280;60001;48.404;11.738;2023-04-29T03:26:33;95958.53;;;10.95;97.15
31357;BME280;60001;48.404;11.738;2023-04-29T03:28:06;95951.66;;;10.89;97.73
31357;BME280;60001;48.404;11.738;2023-04-29T03:29:38;95954.34;;;11.00;96.83
31357;BME280;60001;48.404;11.738;2023-04-29T03:31:10;95950.09;;;10.93;96.17
31357;BME280;60001;48.404;11.738;2023-04-29T03:32:41;95948.75;;;10.96;96.32
31357;BME280;60001;48.404;11.738;2023-04-29T03:34:13;95954.06;;;11.01;95.68
31357;BME280;60001;48.404;11.738;2023-04-29T03:35:45;95948.75;;;10.96;95.89
31357;BME280;60001;48.404;11.738;2023-04-29T03:37:17;95943.22;;;10.92;95.66
31357;BME280;60001;48.404;11.738;2023-04-29T03:38:49;95958.28;;;10.97;95.35
31357;BME280;60001;48.404;11.738;2023-04-29T03:40:20;95928.69;;;10.85;95.32
31357;BME280;60001;48.404;11.738;2023-04-29T03:41:52;95949.53;;;10.91;95.01
31357;BME280;60001;48.404;11.738;2023-04-29T03:43:25;95934.47;;;10.82;95.22
31357;BME280;60001;48.404;11.738;2023-04-29T03:44:57;95957.75;;;10.85;95.74
31357;BME280;60001;48.404;11.738;2023-04-29T03:46:28;95953.78;;;10.87;94.81
31357;BME280;60001;48.404;11.738;2023-04-29T03:48:00;95950.34;;;10.87;95.25
31357;BME280;60001;48.404;11.738;2023-04-29T03:49:32;95947.97;;;10.90;94.79
31357;BME280;60001;48.404;11.738;2023-04-29T03:51:04;95953.00;;;10.92;94.31
31357;BME280;60001;48.404;11.738;2023-04-29T03:52:36;95952.19;;;10.86;95.58
31357;BME280;60001;48.404;11.738;2023-04-29T03:54:08;95941.88;;;10.80;95.24
31357;BME280;60001;48.404;11.738;2023-04-29T03:55:40;95937.13;;;10.82;95.21
31357;BME280;60001;48.404;11.738;2023-04-29T03:57:12;95958.81;;;10.94;95.36
31357;BME280;60001;48.404;11.738;2023-04-29T03:58:45;95956.19;;;10.99;95.24
31357;BME280;60001;48.404;11.738;2023-04-29T04:00:17;95958.81;;;10.99;95.23
31357;BME280;60001;48.404;11.738;2023-04-29T04:01:50;95958.53;;;10.95;94.80
31357;BME280;60001;48.404;11.738;2023-04-29T04:03:23;95960.38;;;10.95;94.93
31357;BME280;60001;48.404;11.738;2023-04-29T04:04:57;95964.88;;;10.89;96.06
31357;BME280;60001;48.404;11.738;2023-04-29T04:06:28;95960.38;;;10.90;96.55
31357;BME280;60001;48.404;11.738;2023-04-29T04:08:00;95959.59;;;10.94;96.08
31357;BME280;60001;48.404;11.738;2023-04-29T04:09:32;95959.63;;;11.00;96.33
31357;BME280;60001;48.404;11.738;2023-04-29T04:11:04;95960.66;;;11.04;97.12
31357;BME280;60001;48.404;11.738;2023-04-29T04:12:36;95938.19;;;10.91;97.37
31357;BME280;60001;48.404;11.738;2023-04-29T04:14:09;95965.44;;;11.07;97.05
31357;BME280;60001;48.404;11.738;2023-04-29T04:15:41;95965.97;;;11.09;97.80
31357;BME280;60001;48.404;11.738;2023-04-29T04:17:13;95971.50;;;11.12;97.52
31357;BME280;60001;48.404;11.738;2023-04-29T04:18:45;95951.44;;;11.06;97.50
31357;BME280;60001;48.404;11.738;2023-04-29T04:20:16;95974.16;;;11.17;97.86
31357;BME280;60001;48.404;11.738;2023-04-29T04:21:49;95973.66;;;11.20;97.61
31357;BME280;60001;48.404;11.738;2023-04-29T04:23:20;95973.66;;;11.20;98.26
31357;BME280;60001;48.404;11.738;2023-04-29T04:24:53;95979.44;;;11.22;98.35
31357;BME280;60001;48.404;11.738;2023-04-29T04:26:25;95975.75;;;11.23;98.72
31357;BME280;60001;48.404;11.738;2023-04-29T04:27:56;95978.13;;;11.25;98.56
31357;BME280;60001;48.404;11.738;2023-04-29T04:29:29;95976.81;;;11.22;98.85
31357;BME280;60001;48.404;11.738;2023-04-29T04:31:01;95983.16;;;11.32;98.79
31357;BME280;60001;48.404;11.738;2023-04-29T04:32:33;95983.41;;;11.30;98.46
31357;BME280;60001;48.404;11.738;2023-04-29T04:34:05;95976.28;;;11.36;98.51
31357;BME280;60001;48.404;11.738;2023-04-29T04:35:36;95979.72;;;11.31;98.91
31357;BME280;60001;48.404;11.738;2023-04-29T04:37:09;95983.16;;;11.37;98.56
31357;BME280;60001;48.404;11.738;2023-04-29T04:38:41;95988.97;;;11.39;98.58
31357;BME280;60001;48.404;11.738;2023-04-29T04:40:13;95979.75;;;11.41;98.38
31357;BME280;60001;48.404;11.738;2023-04-29T04:41:43;95990.28;;;11.46;98.60
31357;BME280;60001;48.404;11.738;2023-04-29T04:43:15;95994.00;;;11.50;98.75
31357;BME280;60001;48.404;11.738;2023-04-29T04:44:48;95991.91;;;11.42;99.49
31357;BME280;60001;48.404;11.738;2023-04-29T04:46:20;95991.88;;;11.52;99.15
31357;BME280;60001;48.404;11.738;2023-04-29T04:47:52;95998.50;;;11.55;98.88
31357;BME280;60001;48.404;11.738;2023-04-29T04:49:24;95992.97;;;11.62;98.79
31357;BME280;60001;48.404;11.738;2023-04-29T04:50:56;95974.72;;;11.55;98.99
31357;BME280;60001;48.404;11.738;2023-04-29T04:52:28;95998.50;;;11.65;99.43
31357;BME280;60001;48.404;11.738;2023-04-29T04:53:59;95975.75;;;11.54;99.47
31357;BME280;60001;48.404;11.738;2023-04-29T04:55:31;96005.63;;;11.65;100.00
31357;BME280;60001;48.404;11.738;2023-04-29T04:57:03;96001.94;;;11.71;99.75
31357;BME280;60001;48.404;11.738;2023-04-29T04:58:35;96000.34;;;11.80;99.28
31357;BME280;60001;48.404;11.738;2023-04-29T05:00:10;95994.00;;;11.86;99.24
31357;BME280;60001;48.404;11.738;2023-04-29T05:01:42;95994.81;;;11.82;100.00
31357;BME280;60001;48.404;11.738;2023-04-29T05:03:14;95999.31;;;11.86;100.00
31357;BME280;60001;48.404;11.738;2023-04-29T05:04:46;95992.94;;;11.82;100.00
31357;BME280;60001;48.404;11.738;2023-04-29T05:06:18;95992.94;;;11.87;100.00
31357;BME280;60001;48.404;11.738;2023-04-29T05:07:49;95995.31;;;11.94;100.00
31357;BME280;60001;48.404;11.738;2023-04-29T05:09:21;95989.50;;;11.97;100.00
31357;BME280;60001;48.404;11.738;2023-04-29T05:10:53;95976.28;;;11.87;99.93
31357;BME280;60001;48.404;11.738;2023-04-29T05:12:26;95999.28;;;12.01;100.00
31357;BME280;60001;48.404;11.738;2023-04-29T05:13:59;96004.84;;;12.05;100.00
31357;BME280;60001;48.404;11.738;2023-04-29T05:15:33;95996.63;;;12.01;100.00
31357;BME280;60001;48.404;11.738;2023-04-29T05:17:05;95983.66;;;11.95;100.00
31357;BME280;60001;48.404;11.738;2023-04-29T05:18:39;96002.19;;;12.10;100.00
31357;BME280;60001;48.404;11.738;2023-04-29T05:20:13;96005.88;;;12.14;100.00
31357;BME280;60001;48.404;11.738;2023-04-29T05:21:45;96012.47;;;12.17;100.00
31357;BME280;60001;48.404;11.738;2023-04-29T05:23:16;96010.88;;;12.21;100.00
31357;BME280;60001;48.404;11.738;2023-04-29T05:24:49;96012.19;;;12.23;100.00
31357;BME280;60001;48.404;11.738;2023-04-29T05:26:22;96011.69;;;12.21;99.95
31357;BME280;60001;48.404;11.738;2023-04-29T05:27:54;96014.03;;;12.33;99.95
31357;BME280;60001;48.404;11.738;2023-04-29T05:29:25;96018.50;;;12.38;100.00
31357;BME280;60001;48.404;11.738;2023-04-29T05:30:59;96023.00;;;12.37;99.81
31357;BME280;60001;48.404;11.738;2023-04-29T05:32:30;96019.84;;;12.40;99.59
31357;BME280;60001;48.404;11.738;2023-04-29T05:34:02;96024.06;;;12.41;99.71
31357;BME280;60001;48.404;11.738;2023-04-29T05:35:34;96021.94;;;12.43;99.70
31357;BME280;60001;48.404;11.738;2023-04-29T05:37:06;96023.53;;;12.44;99.89
31357;BME280;60001;48.404;11.738;2023-04-29T05:38:38;96027.50;;;12.52;99.73
31357;BME280;60001;48.404;11.738;2023-04-29T05:40:10;96025.88;;;12.56;99.54
31357;BME280;60001;48.404;11.738;2023-04-29T05:41:42;96026.94;;;12.60;99.17
31357;BME280;60001;48.404;11.738;2023-04-29T05:43:14;96032.72;;;12.67;99.41
31357;BME280;60001;48.404;11.738;2023-04-29T05:44:46;96030.03;;;12.72;98.32
31357;BME280;60001;48.404;11.738;2023-04-29T05:46:19;96032.44;;;12.74;98.07
31357;BME280;60001;48.404;11.738;2023-04-29T05:47:52;96030.28;;;12.81;99.00
31357;BME280;60001;48.404;11.738;2023-04-29T05:49:24;96023.69;;;12.73;98.87
31357;BME280;60001;48.404;11.738;2023-04-29T05:50:54;96039.53;;;12.83;99.80
31357;BME280;60001;48.404;11.738;2023-04-29T05:52:26;96041.66;;;12.86;99.90
31357;BME280;60001;48.404;11.738;2023-04-29T05:53:58;96038.69;;;12.93;99.71
31357;BME280;60001;48.404;11.738;2023-04-29T05:55:30;96039.47;;;12.99;99.71
31357;BME280;60001;48.404;11.738;2023-04-29T05:57:01;96049.25;;;13.08;99.49
31357;BME280;60001;48.404;11.738;2023-04-29T05:58:33;96039.66;;;13.12;100.00
31357;BME280;60001;48.404;11.738;2023-04-29T06:00:06;96046.81;;;13.17;100.00
31357;BME280;60001;48.404;11.738;2023-04-29T06:01:39;96036.19;;;13.17;99.98
31357;BME280;60001;48.404;11.738;2023-04-29T06:03:11;96041.47;;;13.27;99.35
31357;BME280;60001;48.404;11.738;2023-04-29T06:04:43;96044.66;;;13.29;100.00
31357;BME280;60001;48.404;11.738;2023-04-29T06:06:16;96045.34;;;13.40;99.12
31357;BME280;60001;48.404;11.738;2023-04-29T06:07:47;96044.25;;;13.46;99.25
31357;BME280;60001;48.404;11.738;2023-04-29T06:09:20;96059.06;;;13.57;98.87
31357;BME280;60001;48.404;11.738;2023-04-29T06:10:52;96051.31;;;13.61;98.31
31357;BME280;60001;48.404;11.738;2023-04-29T06:12:24;96056.88;;;13.64;98.41
31357;BME280;60001;48.404;11.738;2023-04-29T06:13:56;96058.16;;;13.72;97.49
31357;BME280;60001;48.404;11.738;2023-04-29T06:15:28;96037.50;;;13.64;97.46
31357;BME280;60001;48.404;11.738;2023-04-29T06:17:01;96053.34;;;13.74;97.23
31357;BME280;60001;48.404;11.738;2023-04-29T06:18:33;96049.16;;;13.63;97.89
31357;BME280;60001;48.404;11.738;2023-04-29T06:20:04;96064.25;;;13.73;98.35
31357;BME280;60001;48.404;11.738;2023-04-29T06:21:36;96065.25;;;13.77;97.43
31357;BME280;60001;48.404;11.738;2023-04-29T06:23:08;96066.06;;;13.77;97.64
31357;BME280;60001;48.404;11.738;2023-04-29T06:24:40;96053.34;;;13.74;98.39
31357;BME280;60001;48.404;11.738;2023-04-29T06:26:12;96076.03;;;13.90;97.41
31357;BME280;60001;48.404;11.738;2023-04-29T06:27:44;96061.75;;;13.86;97.15
31357;BME280;60001;48.404;11.738;2023-04-29T06:29:15;96072.34;;;13.91;97.89
31357;BME280;60001;48.404;11.738;2023-04-29T06:30:47;96080.22;;;13.96;96.67
31357;BME280;60001;48.404;11.738;2023-04-29T06:32:20;96091.13;;;13.95;97.30
31357;BME280;60001;48.404;11.738;2023-04-29T06:33:52;96079.88;;;13.74;97.86
31357;BME280;60001;48.404;11.738;2023-04-29T06:35:24;96083.88;;;13.71;99.08
31357;BME280;60001;48.404;11.738;2023-04-29T06:36:56;96084.16;;;13.70;99.17
31357;BME280;60001;48.404;11.738;2023-04-29T06:38:28;96084.41;;;13.74;99.75
31357;BME280;60001;48.404;11.738;2023-04-29T06:39:59;96093.44;;;13.73;99.27
31357;BME280;60001;48.404;11.738;2023-04-29T06:41:31;96089.97;;;13.72;98.57
31357;BME280;60001;48.404;11.738;2023-04-29T06:43:03;96088.81;;;13.83;99.49
31357;BME280;60001;48.404;11.738;2023-04-29T06:44:35;96095.94;;;13.93;97.94
31357;BME280;60001;48.404;11.738;2023-04-29T06:46:06;96091.94;;;13.95;98.23
31357;BME280;60001;48.404;11.738;2023-04-29T06:47:40;96092.97;;;13.99;97.77
31357;BME280;60001;48.404;11.738;2023-04-29T06:49:11;96086.59;;;14.01;97.47
31357;BME280;60001;48.404;11.738;2023-04-29T06:50:48;96095.06;;;14.03;97.15
31357;BME280;60001;48.404;11.738;2023-04-29T06:52:20;96093.16;;;14.08;97.05
31357;BME280;60001;48.404;11.738;2023-04-29T06:53:52;96086.16;;;14.17;96.51
31357;BME280;60001;48.404;11.738;2023-04-29T06:55:23;96093.31;;;14.22;95.96
31357;BME280;60001;48.404;11.738;2023-04-29T06:56:55;96091.75;;;14.16;95.08
31357;BME280;60001;48.404;11.738;2023-04-29T06:58:27;96084.06;;;14.14;94.13
31357;BME280;60001;48.404;11.738;2023-04-29T06:59:59;96084.28;;;14.18;94.39
31357;BME280;60001;48.404;11.738;2023-04-29T07:01:31;96091.22;;;14.19;94.50
31357;BME280;60001;48.404;11.738;2023-04-29T07:03:04;96079.78;;;14.18;95.48
31357;BME280;60001;48.404;11.738;2023-04-29T07:04:36;96095.63;;;14.29;95.79
31357;BME280;60001;48.404;11.738;2023-04-29T07:06:08;96096.47;;;14.24;95.80
31357;BME280;60001;48.404;11.738;2023-04-29T07:07:40;96098.94;;;14.15;94.99
31357;BME280;60001;48.404;11.738;2023-04-29T07:09:12;96112.19;;;14.20;95.08
31357;BME280;60001;48.404;11.738;2023-04-29T07:10:52;96105.44;;;14.33;94.53
31357;BME280;60001;48.404;11.738;2023-04-29T07:12:24;96105.00;;;14.21;94.67
31357;BME280;60001;48.404;11.738;2023-04-29T07:13:57;96111.28;;;14.30;93.95
31357;BME280;60001;48.404;11.738;2023-04-29T07:15:29;96106.53;;;14.27;92.99
31357;BME280;60001;48.404;11.738;2023-04-29T07:17:03;96096.13;;;14.31;93.26
31357;BME280;60001;48.404;11.738;2023-04-29T07:18:37;96104.28;;;14.39;93.84
31357;BME280;60001;48.404;11.738;2023-04-29T07:20:09;96108.25;;;14.47;93.87
31357;BME280;60001;48.404;11.738;2023-04-29T07:21:41;96088.88;;;14.41;93.26
31357;BME280;60001;48.404;11.738;2023-04-29T07:23:13;96107.38;;;14.51;93.04
31357;BME280;60001;48.404;11.738;2023-04-29T07:24:45;96110.28;;;14.55;92.59
31357;BME280;60001;48.404;11.738;2023-04-29T07:26:17;96111.75;;;14.66;93.08
31357;BME280;60001;48.404;11.738;2023-04-29T07:27:49;96098.94;;;14.73;92.87
31357;BME280;60001;48.404;11.738;2023-04-29T07:29:26;96104.19;;;14.78;93.08
31357;BME280;60001;48.404;11.738;2023-04-29T07:31:00;96101.31;;;14.75;92.77
31357;BME280;60001;48.404;11.738;2023-04-29T07:32:31;96087.06;;;14.90;91.50
31357;BME280;60001;48.404;11.738;2023-04-29T07:34:05;96088.59;;;14.96;90.03
31357;BME280;60001;48.404;11.738;2023-04-29T07:35:37;96108.44;;;15.03;90.45
31357;BME280;60001;48.404;11.738;2023-04-29T07:37:11;96100.72;;;15.02;90.12
31357;BME280;60001;48.404;11.738;2023-04-29T07:38:43;96104.41;;;15.06;89.65
31357;BME280;60001;48.404;11.738;2023-04-29T07:40:15;96100.63;;;15.12;89.03
31357;BME280;60001;48.404;11.738;2023-04-29T07:41:47;96104.34;;;15.11;88.44
31357;BME280;60001;48.404;11.738;2023-04-29T07:43:19;96105.03;;;14.98;89.08
31357;BME280;60001;48.404;11.738;2023-04-29T07:44:51;96101.81;;;15.01;88.20
31357;BME280;60001;48.404;11.738;2023-04-29T07:46:25;96111.00;;;15.08;88.18
31357;BME280;60001;48.404;11.738;2023-04-29T07:47:57;96107.94;;;14.77;87.91
31357;BME280;60001;48.404;11.738;2023-04-29T07:49:30;96114.31;;;14.76;89.89
31357;BME280;60001;48.404;11.738;2023-04-29T07:51:03;96106.47;;;14.90;89.62
31357;BME280;60001;48.404;11.738;2023-04-29T07:52:35;96111.59;;;15.05;89.40
31357;BME280;60001;48.404;11.738;2023-04-29T07:54:07;96114.41;;;15.14;88.53
31357;BME280;60001;48.404;11.738;2023-04-29T07:55:39;96115.88;;;15.25;88.07
31357;BME280;60001;48.404;11.738;2023-04-29T07:57:11;96116.16;;;15.24;88.43
31357;BME280;60001;48.404;11.738;2023-04-29T07:58:42;96119.91;;;15.42;87.84
31357;BME280;60001;48.404;11.738;2023-04-29T08:00:14;96117.84;;;15.39;87.73
31357;BME280;60001;48.404;11.738;2023-04-29T08:01:46;96113.59;;;15.38;86.51
31357;BME280;60001;48.404;11.738;2023-04-29T08:03:23;96119.78;;;15.52;87.40